Alpena, MI

1:27 AM EDT on November 01, 2014 (GMT -0400)
Alpena County Regional | Change Station
CLOSE
Current Station
Airport
Location: Alpena,
Elevation: 689 ft
Nearby Weather Stations

Elev 689 ft 45.07 °N, 83.56 °W | Updated 33 minutes ago

Overcast
Overcast
31 °F
Feels Like 20 °F
N
16
Wind Variable Wind from North

Today
High -- | Low -- °F
--% Chance of Precip.
Yesterday
High -- | Low -- °F
Precip. -- in
8:12 AM 6:21 PM
Waxing Gibbous, 63% visible
Pressure 30.36 in
Visibility 10.0 miles
Clouds Overcast 3000 ft
Windchill 20 °F
Dew Point 21 °F
Humidity 67%
Rainfall 0.00 in
Snow Depth Not available.
UV 0 out of 12
Pollen .10 out of 12
Air Quality Not available.
Flu Activity Not available.
METAR KAPN 010454Z AUTO 36014KT 10SM OVC030 M01/M06 A3033 RMK AO2 SLP280 T10061061 400501011 $

More Conditions Fewer Conditions

Pressure 30.36 in
Visibility 10.0 miles
Clouds Overcast 3000 ft
Windchill 20 °F
Dew Point 21 °F
Humidity 67%
Rainfall 0.00 in
Snow Depth Not available.
UV 0 out of 12
Pollen .10 out of 12
Air Quality Not available.
Flu Activity Not available.
METAR KAPN 010454Z AUTO 36014KT 10SM OVC030 M01/M06 A3033 RMK AO2 SLP280 T10061061 400501011 $

More Conditions Fewer Conditions

10-Day Weather Forecast

Almanac

Astronomy

Nov. 01, 2014 Rise Set
Actual Time
Civil Twilight
Nautical Twilight
Astronomical Twilight
Moon
Length of Visible Light
Length of Day
Tomorrow will be .
, % of the Moon is Illuminated

Today's Extremes

State Highs State Lows

Community

WunderPhotos

Upload Photos

1,766,858 photos uploaded!

WunderBlogs® & News

Nearby

Air Quality

  Air Quality AQ Index Pollutant
Not available.

Snow Depth

Station Depth Elevation

Earthquake Activity

City Distance Mag. Time & Date
Minimum magnitude displayed is 2.5.

Coastal Water Temperatures

Place Temperature

Nearby Weather Stations